Time;durP1;ratioP1;P1;durP2;ratioP2;P2;SDS_P1;SDS_P2;PMS_P1;PMS_P2;Temp;Humidity;BMP_temperature;BMP_pressure;BME280_temperature;BME280_humidity;BME280_pressure;Samples;Min_cycle;Max_cycle;Signal;HPM_P1;HPM_P2
2022/05/07 00:00:11;;;;;;;21.02;11.13;;;;;;;;;;5113196;28;20109;-91
2022/05/07 00:02:36;;;;;;;22.20;10.95;;;;;;;;;;5114236;28;20538;-91
2022/05/07 00:05:02;;;;;;;16.67;10.85;;;;;;;;;;5112998;28;20023;-91
2022/05/07 00:07:27;;;;;;;17.67;11.27;;;;;;;;;;5112971;28;20050;-91
2022/05/07 00:09:52;;;;;;;17.65;10.43;;;;;;;;;;5110674;28;20080;-91
2022/05/07 00:12:17;;;;;;;23.27;11.00;;;;;;;;;;5104589;28;20489;-91
2022/05/07 00:14:43;;;;;;;19.80;11.38;;;;;;;;;;5093982;28;20016;-91
2022/05/07 00:19:52;;;;;;;18.48;10.15;;;;;;;;;;5093908;28;20023;-91
2022/05/07 00:22:18;;;;;;;22.38;11.35;;;;;;;;;;5092323;28;20012;-91
2022/05/07 00:24:43;;;;;;;18.05;10.43;;;;;;;;;;5093339;28;20038;-91
2022/05/07 00:27:08;;;;;;;19.65;11.02;;;;;;;;;;5093298;28;20011;-91
2022/05/07 00:29:33;;;;;;;18.35;11.52;;;;;;;;;;5092172;28;20433;-91
2022/05/07 00:31:59;;;;;;;23.17;10.90;;;;;;;;;;5092111;28;20019;-90
2022/05/07 00:34:25;;;;;;;22.20;11.98;;;;;;;;;;5092113;28;20012;-91
2022/05/07 00:36:50;;;;;;;20.05;10.82;;;;;;;;;;5092045;28;20016;-91
2022/05/07 00:39:16;;;;;;;21.67;12.13;;;;;;;;;;5091816;28;20016;-91
2022/05/07 00:41:41;;;;;;;18.38;10.73;;;;;;;;;;5092137;28;20020;-90
2022/05/07 00:44:06;;;;;;;19.60;10.85;;;;;;;;;;5092053;28;20039;-91
2022/05/07 00:46:32;;;;;;;25.15;11.43;;;;;;;;;;5091724;28;20033;-91
2022/05/07 00:48:57;;;;;;;17.38;10.80;;;;;;;;;;5091870;28;20027;-91
2022/05/07 00:51:35;;;;;;;18.48;10.77;;;;;;;;;;5091727;28;20145;-91
2022/05/07 00:54:05;;;;;;;21.10;11.43;;;;;;;;;;5092988;28;20026;-91
2022/05/07 00:56:31;;;;;;;19.88;10.95;;;;;;;;;;5091822;28;20081;-91
2022/05/07 00:58:57;;;;;;;22.45;12.15;;;;;;;;;;5092217;28;20020;-91
2022/05/07 01:01:22;;;;;;;20.02;11.52;;;;;;;;;;5091849;28;20058;-91
2022/05/07 01:03:48;;;;;;;25.45;11.88;;;;;;;;;;5091418;28;20166;-91
2022/05/07 01:06:14;;;;;;;25.30;12.73;;;;;;;;;;5091462;28;20016;-90
2022/05/07 01:08:39;;;;;;;20.33;11.55;;;;;;;;;;5092172;28;20585;-90
2022/05/07 01:11:04;;;;;;;22.95;12.57;;;;;;;;;;5091923;28;20027;-91
2022/05/07 01:13:30;;;;;;;19.98;11.88;;;;;;;;;;5091929;28;20059;-91
2022/05/07 01:15:56;;;;;;;20.02;12.27;;;;;;;;;;5091546;28;20053;-91
2022/05/07 01:18:21;;;;;;;23.65;12.13;;;;;;;;;;5091308;28;20028;-91
2022/05/07 01:20:47;;;;;;;22.38;12.13;;;;;;;;;;5091600;28;20065;-91
2022/05/07 01:23:12;;;;;;;20.83;12.27;;;;;;;;;;5092008;28;20042;-91
2022/05/07 01:25:37;;;;;;;20.40;12.73;;;;;;;;;;5095703;28;20073;-91
2022/05/07 01:28:03;;;;;;;20.60;11.60;;;;;;;;;;5096087;28;20032;-91
2022/05/07 01:30:28;;;;;;;23.17;12.20;;;;;;;;;;5095849;28;20085;-91
2022/05/07 01:32:54;;;;;;;20.05;11.60;;;;;;;;;;5095593;28;20020;-90
2022/05/07 01:35:19;;;;;;;20.42;11.63;;;;;;;;;;5095197;28;20147;-91
2022/05/07 01:37:44;;;;;;;16.67;10.65;;;;;;;;;;5095232;28;20539;-91
2022/05/07 01:40:11;;;;;;;17.20;10.45;;;;;;;;;;5095158;28;20024;-91
2022/05/07 01:42:36;;;;;;;20.80;11.20;;;;;;;;;;5095109;28;20046;-91
2022/05/07 01:45:01;;;;;;;17.35;10.70;;;;;;;;;;5095248;28;20040;-91
2022/05/07 01:50:11;;;;;;;22.50;11.63;;;;;;;;;;5096209;28;20157;-91
2022/05/07 01:52:36;;;;;;;17.48;10.73;;;;;;;;;;5096175;28;20052;-91
2022/05/07 01:55:01;;;;;;;15.95;10.23;;;;;;;;;;5095087;28;20024;-91
2022/05/07 01:57:26;;;;;;;19.30;11.02;;;;;;;;;;5096369;28;20062;-91
2022/05/07 01:59:51;;;;;;;20.58;11.23;;;;;;;;;;5095069;28;20022;-90
2022/05/07 02:02:17;;;;;;;19.10;11.02;;;;;;;;;;5096039;28;20044;-91
2022/05/07 02:04:42;;;;;;;22.30;10.90;;;;;;;;;;5095226;28;20421;-91
2022/05/07 02:07:08;;;;;;;18.20;10.82;;;;;;;;;;5094949;28;20016;-91
2022/05/07 02:09:33;;;;;;;24.13;12.75;;;;;;;;;;5095019;28;20016;-91
2022/05/07 02:11:58;;;;;;;18.95;12.05;;;;;;;;;;5094956;28;20081;-91
2022/05/07 02:14:24;;;;;;;22.38;13.05;;;;;;;;;;5094927;28;20032;-91
2022/05/07 02:16:49;;;;;;;19.40;11.02;;;;;;;;;;5094748;28;20021;-91
2022/05/07 02:19:14;;;;;;;18.83;11.25;;;;;;;;;;5094499;28;20463;-90
2022/05/07 02:21:39;;;;;;;20.15;11.23;;;;;;;;;;5094668;28;20017;-90
2022/05/07 02:24:05;;;;;;;20.73;11.52;;;;;;;;;;5094693;28;20051;-90
2022/05/07 02:26:30;;;;;;;23.98;11.77;;;;;;;;;;5094383;28;20085;-90
2022/05/07 02:28:55;;;;;;;22.27;12.35;;;;;;;;;;5094812;28;20051;-91
2022/05/07 02:31:20;;;;;;;20.27;11.93;;;;;;;;;;5094659;28;20032;-91
2022/05/07 02:33:45;;;;;;;21.80;11.57;;;;;;;;;;5095497;28;20048;-91
2022/05/07 02:36:11;;;;;;;20.38;12.05;;;;;;;;;;5093113;28;20539;-91
2022/05/07 02:38:38;;;;;;;24.45;11.68;;;;;;;;;;5095520;28;20012;-91
2022/05/07 02:43:47;;;;;;;21.02;11.95;;;;;;;;;;5095409;28;20039;-90
2022/05/07 02:46:12;;;;;;;26.55;13.77;;;;;;;;;;5093930;28;20028;-91
2022/05/07 02:48:38;;;;;;;22.90;12.40;;;;;;;;;;5094343;28;20348;-91
2022/05/07 02:51:03;;;;;;;16.40;10.80;;;;;;;;;;5094253;28;20020;-90
2022/05/07 02:53:28;;;;;;;19.45;11.77;;;;;;;;;;5093955;28;20021;-91
2022/05/07 02:55:53;;;;;;;20.05;11.98;;;;;;;;;;5094537;28;20020;-91
2022/05/07 02:58:19;;;;;;;21.23;11.43;;;;;;;;;;5094012;28;20077;-90
2022/05/07 03:00:44;;;;;;;25.33;12.20;;;;;;;;;;5095115;28;20379;-90
2022/05/07 03:03:09;;;;;;;20.27;12.07;;;;;;;;;;5093660;28;20023;-89
2022/05/07 03:05:34;;;;;;;28.63;12.70;;;;;;;;;;5094087;28;20023;-89
2022/05/07 03:08:00;;;;;;;23.65;12.15;;;;;;;;;;5093894;28;20028;-90
2022/05/07 03:10:25;;;;;;;23.25;12.30;;;;;;;;;;5094630;28;20078;-90
2022/05/07 03:12:50;;;;;;;21.42;12.55;;;;;;;;;;5093922;28;20147;-90
2022/05/07 03:15:15;;;;;;;20.17;12.88;;;;;;;;;;5092820;28;20077;-91
2022/05/07 03:17:41;;;;;;;28.40;13.40;;;;;;;;;;5093088;28;20459;-90
2022/05/07 03:20:11;;;;;;;19.85;12.52;;;;;;;;;;5093134;28;20023;-91
2022/05/07 03:22:37;;;;;;;26.13;13.82;;;;;;;;;;5093306;28;20103;-90
2022/05/07 03:25:03;;;;;;;24.48;13.43;;;;;;;;;;5093053;28;20019;-90
2022/05/07 03:27:29;;;;;;;22.17;12.55;;;;;;;;;;5093452;28;20103;-90
2022/05/07 03:29:54;;;;;;;21.80;12.77;;;;;;;;;;5092982;28;20115;-91
2022/05/07 03:32:20;;;;;;;23.33;13.98;;;;;;;;;;5093083;28;20118;-91
2022/05/07 03:34:45;;;;;;;25.95;14.35;;;;;;;;;;5092784;28;20047;-91
2022/05/07 03:37:10;;;;;;;24.80;14.45;;;;;;;;;;5092890;28;20126;-91
2022/05/07 03:39:36;;;;;;;31.55;15.48;;;;;;;;;;5094228;28;20016;-91
2022/05/07 03:42:01;;;;;;;25.48;13.65;;;;;;;;;;5094329;28;20410;-91
2022/05/07 03:44:26;;;;;;;26.27;14.02;;;;;;;;;;5093137;28;20222;-91
2022/05/07 03:46:51;;;;;;;28.10;14.13;;;;;;;;;;5092615;28;20479;-91
2022/05/07 03:49:17;;;;;;;31.10;13.82;;;;;;;;;;5093804;28;20023;-91
2022/05/07 03:54:26;;;;;;;24.67;14.27;;;;;;;;;;5094341;28;20065;-90
2022/05/07 03:56:51;;;;;;;27.65;14.98;;;;;;;;;;5092689;28;20024;-91
2022/05/07 03:59:17;;;;;;;28.02;15.52;;;;;;;;;;5092769;28;20523;-90
2022/05/07 04:01:42;;;;;;;25.58;15.27;;;;;;;;;;5092824;28;20016;-90
2022/05/07 04:04:07;;;;;;;25.90;14.00;;;;;;;;;;5093758;28;20015;-91
2022/05/07 04:06:32;;;;;;;25.35;15.05;;;;;;;;;;5092922;28;20386;-90
2022/05/07 04:08:57;;;;;;;25.60;15.32;;;;;;;;;;5092634;28;20046;-91
2022/05/07 04:11:23;;;;;;;28.17;14.32;;;;;;;;;;5092485;28;20027;-90
2022/05/07 04:13:48;;;;;;;26.85;14.85;;;;;;;;;;5092473;28;20031;-90
2022/05/07 04:16:13;;;;;;;26.92;15.32;;;;;;;;;;5091895;28;20073;-90
2022/05/07 04:18:38;;;;;;;27.90;15.02;;;;;;;;;;5092073;28;20459;-90
2022/05/07 04:21:04;;;;;;;27.20;14.77;;;;;;;;;;5092074;28;20016;-90
2022/05/07 04:23:30;;;;;;;24.88;15.05;;;;;;;;;;5092198;28;20024;-91
2022/05/07 04:25:55;;;;;;;27.92;13.98;;;;;;;;;;5092862;28;20016;-91
2022/05/07 04:28:20;;;;;;;27.38;15.15;;;;;;;;;;5092309;28;20032;-91
2022/05/07 04:30:45;;;;;;;29.48;15.98;;;;;;;;;;5092152;28;20418;-91
2022/05/07 04:33:10;;;;;;;27.77;15.43;;;;;;;;;;5092074;28;20031;-90
2022/05/07 04:35:36;;;;;;;32.22;14.95;;;;;;;;;;5091521;28;20020;-91
2022/05/07 04:38:01;;;;;;;25.08;14.73;;;;;;;;;;5092039;28;20573;-90
2022/05/07 04:40:26;;;;;;;22.80;15.00;;;;;;;;;;5092258;28;20019;-91
2022/05/07 04:42:51;;;;;;;35.50;14.45;;;;;;;;;;5091788;28;20379;-91
2022/05/07 04:45:17;;;;;;;26.27;15.40;;;;;;;;;;5091553;28;20016;-91
2022/05/07 04:47:42;;;;;;;26.55;14.30;;;;;;;;;;5091488;28;20057;-91
2022/05/07 04:50:07;;;;;;;25.70;14.88;;;;;;;;;;5092975;28;20023;-91
2022/05/07 04:52:33;;;;;;;26.85;14.82;;;;;;;;;;5091831;28;20368;-90
2022/05/07 04:54:59;;;;;;;27.48;14.50;;;;;;;;;;5091459;28;20429;-90
2022/05/07 04:57:24;;;;;;;28.25;14.45;;;;;;;;;;5091620;28;20028;-90
2022/05/07 04:59:50;;;;;;;28.75;14.93;;;;;;;;;;5091312;28;20020;-90
2022/05/07 05:02:15;;;;;;;28.58;15.43;;;;;;;;;;5091742;28;20020;-90
2022/05/07 05:04:40;;;;;;;26.90;15.52;;;;;;;;;;5091394;28;20039;-91
2022/05/07 05:07:05;;;;;;;24.55;15.57;;;;;;;;;;5091641;28;20020;-91
2022/05/07 05:09:30;;;;;;;29.42;15.85;;;;;;;;;;5091468;28;20030;-91
2022/05/07 05:11:56;;;;;;;26.98;15.52;;;;;;;;;;5092198;28;20019;-91
2022/05/07 05:17:05;;;;;;;33.08;14.63;;;;;;;;;;5093389;28;20158;-90
2022/05/07 05:19:30;;;;;;;25.00;13.70;;;;;;;;;;5091740;28;20062;-90
2022/05/07 05:21:55;;;;;;;25.58;12.27;;;;;;;;;;5092883;28;20028;-90
2022/05/07 05:24:21;;;;;;;27.08;11.85;;;;;;;;;;5091517;28;20113;-90
2022/05/07 05:26:46;;;;;;;26.02;12.32;;;;;;;;;;5091705;28;20024;-90
2022/05/07 05:29:11;;;;;;;25.52;11.63;;;;;;;;;;5091652;28;20051;-90
2022/05/07 05:31:36;;;;;;;26.10;11.70;;;;;;;;;;5091406;28;20086;-90
2022/05/07 05:34:01;;;;;;;23.50;11.68;;;;;;;;;;5091920;28;20119;-90
2022/05/07 05:36:27;;;;;;;24.13;11.13;;;;;;;;;;5091361;28;20046;-91
2022/05/07 05:38:52;;;;;;;21.20;11.13;;;;;;;;;;5093197;28;20451;-90
2022/05/07 05:41:18;;;;;;;21.90;10.93;;;;;;;;;;5091725;28;20012;-90
2022/05/07 05:43:45;;;;;;;23.52;10.85;;;;;;;;;;5091485;28;20055;-90
2022/05/07 05:46:10;;;;;;;22.83;11.00;;;;;;;;;;5091038;28;20016;-90
2022/05/07 05:48:35;;;;;;;23.77;11.60;;;;;;;;;;5091759;28;20076;-90
2022/05/07 05:51:00;;;;;;;28.50;11.38;;;;;;;;;;5092750;28;20054;-91
2022/05/07 05:53:26;;;;;;;26.25;11.05;;;;;;;;;;5091522;28;20024;-90
2022/05/07 05:55:51;;;;;;;20.90;10.75;;;;;;;;;;5091074;28;20024;-90
2022/05/07 05:58:17;;;;;;;24.65;11.70;;;;;;;;;;5091604;28;20017;-90
2022/05/07 06:00:42;;;;;;;21.88;10.43;;;;;;;;;;5091423;28;20016;-91
2022/05/07 06:03:07;;;;;;;27.13;11.07;;;;;;;;;;5091292;28;20115;-90
2022/05/07 06:05:32;;;;;;;21.75;10.35;;;;;;;;;;5090933;28;20046;-91
2022/05/07 06:07:58;;;;;;;21.67;10.27;;;;;;;;;;5091002;28;20023;-91
2022/05/07 06:10:23;;;;;;;22.65;10.35;;;;;;;;;;5091970;28;20012;-90
2022/05/07 06:12:49;;;;;;;23.70;11.43;;;;;;;;;;5095156;28;20020;-91
2022/05/07 06:15:14;;;;;;;30.30;11.52;;;;;;;;;;5094254;28;20114;-91
2022/05/07 06:17:39;;;;;;;24.65;10.43;;;;;;;;;;5094741;28;20088;-90
2022/05/07 06:20:05;;;;;;;24.38;11.38;;;;;;;;;;5094696;28;20016;-90
2022/05/07 06:22:30;;;;;;;25.10;10.57;;;;;;;;;;5094510;28;20077;-90
2022/05/07 06:27:39;;;;;;;25.08;11.45;;;;;;;;;;5095686;28;20050;-90
2022/05/07 06:30:05;;;;;;;28.92;12.00;;;;;;;;;;5095156;28;20016;-90
2022/05/07 06:32:34;;;;;;;25.85;11.88;;;;;;;;;;5094268;28;20016;-90
2022/05/07 06:35:00;;;;;;;27.23;12.32;;;;;;;;;;5094112;28;20479;-90
2022/05/07 06:37:25;;;;;;;27.05;12.18;;;;;;;;;;5094249;28;20016;-90
2022/05/07 06:39:50;;;;;;;28.92;12.57;;;;;;;;;;5094273;28;20020;-90
2022/05/07 06:42:15;;;;;;;32.47;13.48;;;;;;;;;;5094233;28;20020;-90
2022/05/07 06:44:41;;;;;;;27.92;12.18;;;;;;;;;;5095217;28;20036;-90
2022/05/07 06:47:06;;;;;;;28.38;12.52;;;;;;;;;;5095161;28;20035;-90
2022/05/07 06:49:31;;;;;;;32.22;13.07;;;;;;;;;;5094060;28;20053;-91
2022/05/07 06:51:57;;;;;;;36.13;14.15;;;;;;;;;;5094438;28;20382;-91
2022/05/07 06:54:22;;;;;;;28.05;13.00;;;;;;;;;;5094057;28;20478;-90
2022/05/07 06:56:47;;;;;;;27.10;13.18;;;;;;;;;;5094879;28;20023;-90
2022/05/07 06:59:12;;;;;;;32.30;13.25;;;;;;;;;;5093945;28;20059;-90
2022/05/07 07:01:38;;;;;;;33.70;15.38;;;;;;;;;;5093784;28;20020;-90
2022/05/07 07:04:03;;;;;;;32.08;13.35;;;;;;;;;;5093569;28;20052;-90
2022/05/07 07:06:28;;;;;;;29.80;13.82;;;;;;;;;;5093489;28;20020;-90
2022/05/07 07:08:54;;;;;;;33.45;14.57;;;;;;;;;;5093566;28;20077;-90
2022/05/07 07:11:20;;;;;;;33.42;14.10;;;;;;;;;;5093185;28;20031;-91
2022/05/07 07:13:46;;;;;;;31.70;13.90;;;;;;;;;;5093441;28;20077;-91
2022/05/07 07:16:11;;;;;;;33.30;14.60;;;;;;;;;;5092951;28;20564;-90
2022/05/07 07:18:36;;;;;;;35.70;14.90;;;;;;;;;;5094364;28;20415;-90
2022/05/07 07:21:01;;;;;;;33.22;15.00;;;;;;;;;;5093195;28;20156;-91
2022/05/07 07:23:27;;;;;;;38.50;15.25;;;;;;;;;;5094430;28;20059;-91
2022/05/07 07:25:52;;;;;;;29.45;13.75;;;;;;;;;;5093145;28;20031;-91
2022/05/07 07:28:17;;;;;;;33.80;14.93;;;;;;;;;;5093539;28;20020;-91
2022/05/07 07:30:42;;;;;;;34.75;15.55;;;;;;;;;;5093380;28;20202;-91
2022/05/07 07:33:08;;;;;;;32.17;12.77;;;;;;;;;;5094337;28;20099;-91
2022/05/07 07:35:33;;;;;;;34.00;14.60;;;;;;;;;;5092492;28;20050;-91
2022/05/07 07:37:58;;;;;;;32.42;13.63;;;;;;;;;;5092976;28;20066;-91
2022/05/07 07:40:23;;;;;;;31.00;12.90;;;;;;;;;;5093806;28;20077;-91
2022/05/07 07:42:48;;;;;;;27.00;11.35;;;;;;;;;;5092513;28;20023;-91
2022/05/07 07:48:04;;;;;;;35.70;14.25;;;;;;;;;;5094406;28;20085;-91
2022/05/07 07:50:34;;;;;;;38.25;15.35;;;;;;;;;;5092991;28;20070;-91
2022/05/07 07:53:00;;;;;;;36.80;15.68;;;;;;;;;;5092901;28;20020;-91
2022/05/07 07:55:26;;;;;;;34.92;15.90;;;;;;;;;;5092813;28;20022;-91
2022/05/07 07:57:56;;;;;;;26.48;12.63;;;;;;;;;;5092623;28;20463;-91
2022/05/07 08:00:21;;;;;;;37.45;15.02;;;;;;;;;;5092571;28;20020;-91
2022/05/07 08:02:47;;;;;;;35.58;16.58;;;;;;;;;;5092533;28;20019;-91
2022/05/07 08:05:13;;;;;;;36.85;14.40;;;;;;;;;;5092918;28;20077;-91
2022/05/07 08:13:06;;;;;;;27.02;13.73;;;;;;;;;;5093535;28;20115;-91
2022/05/07 08:15:32;;;;;;;29.38;12.63;;;;;;;;;;5091901;28;20098;-91
2022/05/07 08:17:57;;;;;;;34.67;15.50;;;;;;;;;;5092443;28;20016;-91
2022/05/07 08:20:22;;;;;;;31.33;15.10;;;;;;;;;;5093304;28;20026;-90
2022/05/07 08:22:47;;;;;;;34.25;15.50;;;;;;;;;;5091825;28;20016;-90
2022/05/07 08:25:12;;;;;;;38.72;15.38;;;;;;;;;;5092037;28;20030;-90
2022/05/07 08:27:38;;;;;;;42.78;17.25;;;;;;;;;;5093487;28;20120;-91
2022/05/07 08:30:04;;;;;;;35.20;15.75;;;;;;;;;;5093338;28;20451;-91
2022/05/07 08:32:29;;;;;;;31.45;14.07;;;;;;;;;;5091833;28;20046;-91
2022/05/07 08:34:54;;;;;;;36.53;17.00;;;;;;;;;;5091467;28;20119;-91
2022/05/07 08:37:19;;;;;;;40.28;15.38;;;;;;;;;;5092015;28;20032;-91
2022/05/07 08:39:44;;;;;;;32.90;13.18;;;;;;;;;;5093540;28;20008;-90
2022/05/07 08:42:09;;;;;;;34.70;14.23;;;;;;;;;;5092286;28;20016;-91
2022/05/07 08:44:35;;;;;;;35.85;14.38;;;;;;;;;;5092161;28;20019;-92
2022/05/07 08:47:00;;;;;;;36.63;14.85;;;;;;;;;;5092441;28;20012;-91
2022/05/07 08:49:25;;;;;;;35.08;12.30;;;;;;;;;;5093070;28;20012;-90
2022/05/07 08:51:53;;;;;;;38.53;15.23;;;;;;;;;;5091792;28;20016;-91
2022/05/07 08:54:18;;;;;;;36.33;15.77;;;;;;;;;;5091617;28;20023;-91
2022/05/07 08:56:44;;;;;;;45.80;15.38;;;;;;;;;;5093224;28;20026;-91
2022/05/07 08:59:09;;;;;;;36.92;14.15;;;;;;;;;;5091877;28;20012;-91
2022/05/07 09:01:34;;;;;;;44.65;16.65;;;;;;;;;;5091691;28;20020;-91
2022/05/07 09:04:07;;;;;;;42.72;16.83;;;;;;;;;;5091831;28;20020;-91
2022/05/07 09:06:32;;;;;;;41.75;17.83;;;;;;;;;;5092768;28;20461;-91
2022/05/07 09:08:57;;;;;;;33.40;14.95;;;;;;;;;;5091819;28;20388;-91
2022/05/07 09:11:23;;;;;;;46.45;17.67;;;;;;;;;;5091915;28;20024;-91
2022/05/07 09:13:58;;;;;;;39.60;15.25;;;;;;;;;;5091957;28;20020;-91
2022/05/07 09:16:23;;;;;;;32.15;14.55;;;;;;;;;;5092360;28;20052;-91
2022/05/07 09:18:49;;;;;;;29.83;12.23;;;;;;;;;;5092762;28;20039;-91
2022/05/07 09:21:19;;;;;;;42.92;17.70;;;;;;;;;;5092814;28;20091;-91
2022/05/07 09:23:48;;;;;;;37.85;15.38;;;;;;;;;;5093118;28;20096;-91
2022/05/07 09:26:23;;;;;;;44.13;17.10;;;;;;;;;;5091548;28;20028;-91
2022/05/07 09:28:49;;;;;;;45.67;17.42;;;;;;;;;;5091853;28;20103;-91
2022/05/07 09:31:21;;;;;;;36.50;16.75;;;;;;;;;;5092942;28;20100;-90
2022/05/07 09:33:46;;;;;;;38.42;16.85;;;;;;;;;;5091856;28;20530;-91
2022/05/07 09:36:12;;;;;;;46.42;19.15;;;;;;;;;;5091084;28;20127;-91
2022/05/07 09:38:38;;;;;;;38.15;16.25;;;;;;;;;;5093005;28;20516;-90
2022/05/07 09:41:04;;;;;;;38.15;15.18;;;;;;;;;;5091836;28;20514;-90
2022/05/07 09:43:30;;;;;;;43.60;16.85;;;;;;;;;;5092539;28;20034;-91
2022/05/07 09:45:56;;;;;;;41.80;17.42;;;;;;;;;;5094620;28;20027;-90
2022/05/07 09:48:21;;;;;;;43.05;17.42;;;;;;;;;;5096651;28;20526;-91
2022/05/07 09:50:46;;;;;;;50.80;18.85;;;;;;;;;;5096420;28;20375;-91
2022/05/07 09:58:44;;;;;;;42.25;16.27;;;;;;;;;;5096637;28;20066;-91
2022/05/07 10:01:12;;;;;;;37.55;16.85;;;;;;;;;;5094807;28;20395;-91
2022/05/07 10:03:42;;;;;;;31.92;14.98;;;;;;;;;;5096254;28;20455;-90
2022/05/07 10:06:34;;;;;;;40.22;17.52;;;;;;;;;;5094869;28;20051;-90
2022/05/07 10:09:14;;;;;;;29.85;11.48;;;;;;;;;;5078973;28;20078;-91
2022/05/07 10:11:39;;;;;;;38.63;15.98;;;;;;;;;;5095862;28;20016;-90
2022/05/07 10:14:05;;;;;;;36.90;15.90;;;;;;;;;;5094749;28;20073;-91
2022/05/07 10:16:30;;;;;;;38.15;15.95;;;;;;;;;;5094657;28;20115;-91
2022/05/07 10:18:56;;;;;;;33.80;14.88;;;;;;;;;;5096103;28;20043;-91
2022/05/07 10:21:22;;;;;;;30.48;13.55;;;;;;;;;;5094734;28;20032;-91
2022/05/07 10:23:57;;;;;;;43.75;16.33;;;;;;;;;;5096102;28;20034;-91
2022/05/07 10:26:41;;;;;;;32.78;13.40;;;;;;;;;;5094618;28;20057;-91
2022/05/07 10:29:07;;;;;;;36.30;16.27;;;;;;;;;;5094724;28;20028;-90
2022/05/07 10:31:43;;;;;;;32.95;13.85;;;;;;;;;;5094648;28;20036;-91
2022/05/07 10:34:08;;;;;;;35.47;13.57;;;;;;;;;;5094282;28;20035;-90
2022/05/07 10:36:35;;;;;;;40.63;13.30;;;;;;;;;;5094518;28;20024;-90
2022/05/07 10:39:06;;;;;;;40.45;16.08;;;;;;;;;;5094383;28;20028;-91
2022/05/07 10:41:32;;;;;;;27.77;12.02;;;;;;;;;;5094370;28;20078;-91
2022/05/07 10:43:57;;;;;;;33.28;13.77;;;;;;;;;;5094451;28;20028;-90
2022/05/07 10:46:23;;;;;;;29.65;13.70;;;;;;;;;;5094474;28;20055;-91
2022/05/07 10:48:57;;;;;;;27.27;11.50;;;;;;;;;;5095552;28;20069;-90
2022/05/07 10:51:26;;;;;;;36.22;14.73;;;;;;;;;;5094594;28;20372;-91
2022/05/07 10:53:52;;;;;;;40.33;16.02;;;;;;;;;;5094181;28;20517;-90
2022/05/07 10:56:18;;;;;;;31.20;13.05;;;;;;;;;;5092943;28;20036;-91
2022/05/07 10:58:50;;;;;;;31.92;14.13;;;;;;;;;;5095352;28;20030;-92
2022/05/07 11:01:16;;;;;;;29.15;12.52;;;;;;;;;;5095200;28;20073;-90
2022/05/07 11:03:41;;;;;;;37.58;15.32;;;;;;;;;;5095362;28;20024;-90
2022/05/07 11:06:06;;;;;;;38.85;16.67;;;;;;;;;;5094270;28;20048;-91
2022/05/07 11:08:31;;;;;;;34.35;13.20;;;;;;;;;;5094370;28;20511;-91
2022/05/07 11:11:10;;;;;;;27.73;12.77;;;;;;;;;;5094076;28;20390;-91
2022/05/07 11:13:45;;;;;;;34.00;13.07;;;;;;;;;;5093974;28;20020;-91
2022/05/07 11:16:10;;;;;;;30.88;15.40;;;;;;;;;;5093839;28;20040;-91
2022/05/07 11:18:35;;;;;;;36.45;15.35;;;;;;;;;;5093781;28;20031;-90
2022/05/07 11:21:02;;;;;;;33.03;14.73;;;;;;;;;;5094304;28;20024;-91
2022/05/07 11:23:27;;;;;;;27.83;12.73;;;;;;;;;;5094357;28;20016;-91
2022/05/07 11:25:52;;;;;;;30.95;13.40;;;;;;;;;;5094061;28;20378;-91
2022/05/07 11:28:17;;;;;;;30.40;12.93;;;;;;;;;;5093977;28;20442;-91
2022/05/07 11:30:52;;;;;;;29.42;11.13;;;;;;;;;;5093476;28;20119;-90
2022/05/07 11:33:24;;;;;;;23.63;9.68;;;;;;;;;;5093286;28;20031;-91
2022/05/07 11:35:58;;;;;;;23.20;9.48;;;;;;;;;;5093942;28;20026;-91
2022/05/07 11:38:24;;;;;;;25.40;11.23;;;;;;;;;;5093007;28;20021;-90
2022/05/07 11:40:50;;;;;;;26.73;14.00;;;;;;;;;;5093112;28;20012;-91
2022/05/07 11:46:06;;;;;;;36.42;13.35;;;;;;;;;;5094794;28;20415;-90
2022/05/07 11:48:31;;;;;;;29.55;12.35;;;;;;;;;;5093136;28;20032;-90
2022/05/07 11:50:59;;;;;;;35.50;13.90;;;;;;;;;;5093293;28;20020;-91
2022/05/07 11:53:34;;;;;;;35.35;15.02;;;;;;;;;;5092794;28;20099;-90
2022/05/07 11:56:04;;;;;;;25.63;12.85;;;;;;;;;;5093740;28;20027;-90
2022/05/07 11:58:37;;;;;;;38.03;15.07;;;;;;;;;;5092705;28;20026;-91
2022/05/07 12:01:03;;;;;;;31.63;12.82;;;;;;;;;;5092542;28;20047;-90
2022/05/07 12:03:28;;;;;;;29.60;12.82;;;;;;;;;;5092470;28;20048;-91
2022/05/07 12:05:54;;;;;;;29.95;13.15;;;;;;;;;;5092950;28;20046;-91
2022/05/07 12:08:24;;;;;;;29.38;12.73;;;;;;;;;;5092646;28;20047;-91
2022/05/07 12:10:50;;;;;;;38.60;14.85;;;;;;;;;;5092892;28;20069;-90
2022/05/07 12:13:16;;;;;;;34.03;13.93;;;;;;;;;;5093368;28;20032;-91
2022/05/07 12:18:25;;;;;;;20.13;8.40;;;;;;;;;;5093990;28;20046;-91
2022/05/07 12:20:51;;;;;;;17.00;8.07;;;;;;;;;;5092534;28;20068;-91
2022/05/07 12:31:28;;;;;;;11.68;3.92;;;;;;;;;;5093523;28;20034;-91
2022/05/07 12:33:53;;;;;;;17.63;4.22;;;;;;;;;;5092649;28;20445;-91
2022/05/07 12:36:21;;;;;;;5.05;2.60;;;;;;;;;;5091910;28;20027;-91
2022/05/07 12:38:47;;;;;;;8.32;2.75;;;;;;;;;;5092305;28;20016;-91
2022/05/07 12:41:12;;;;;;;9.55;2.70;;;;;;;;;;5092192;28;20039;-92
2022/05/07 12:43:38;;;;;;;9.70;3.42;;;;;;;;;;5092009;28;20467;-92
2022/05/07 12:46:03;;;;;;;10.05;3.30;;;;;;;;;;5091674;28;20024;-92
2022/05/07 12:48:30;;;;;;;9.18;3.90;;;;;;;;;;5092845;28;20690;-92
2022/05/07 12:50:55;;;;;;;11.82;4.70;;;;;;;;;;5092649;28;20020;-91
2022/05/07 12:53:20;;;;;;;15.35;5.18;;;;;;;;;;5091645;28;20035;-91
2022/05/07 12:55:46;;;;;;;14.55;6.35;;;;;;;;;;5092035;28;20038;-92
2022/05/07 12:58:12;;;;;;;16.25;6.53;;;;;;;;;;5093086;28;20099;-92
2022/05/07 13:00:40;;;;;;;15.10;7.50;;;;;;;;;;5092053;28;20352;-91
2022/05/07 13:03:06;;;;;;;17.90;7.38;;;;;;;;;;5091618;28;20028;-92
2022/05/07 13:05:33;;;;;;;18.23;7.35;;;;;;;;;;5091128;28;20028;-92
2022/05/07 13:08:00;;;;;;;19.67;8.25;;;;;;;;;;5092733;28;20510;-92
2022/05/07 13:10:25;;;;;;;16.33;8.55;;;;;;;;;;5092688;28;20467;-91
2022/05/07 13:12:50;;;;;;;39.80;8.50;;;;;;;;;;5092719;28;20032;-92
2022/05/07 13:15:16;;;;;;;20.95;8.40;;;;;;;;;;5092410;28;20028;-92
2022/05/07 13:17:41;;;;;;;17.05;9.38;;;;;;;;;;5092536;28;20027;-92
2022/05/07 13:20:06;;;;;;;103.82;14.77;;;;;;;;;;5094026;28;20455;-92
2022/05/07 13:22:34;;;;;;;30.00;10.65;;;;;;;;;;5096324;28;20023;-92
2022/05/07 13:25:00;;;;;;;18.13;10.38;;;;;;;;;;5096102;28;20375;-92
2022/05/07 13:27:25;;;;;;;19.77;10.38;;;;;;;;;;5095520;28;20019;-92
2022/05/07 13:29:50;;;;;;;47.13;12.80;;;;;;;;;;5095643;28;20038;-92
2022/05/07 13:32:16;;;;;;;28.52;10.02;;;;;;;;;;5095768;28;20027;-91
2022/05/07 13:34:42;;;;;;;20.27;10.48;;;;;;;;;;5095157;28;20020;-92
2022/05/07 13:37:07;;;;;;;42.90;12.63;;;;;;;;;;5095489;28;20051;-91
2022/05/07 13:39:32;;;;;;;35.35;12.20;;;;;;;;;;5095174;28;20032;-91
2022/05/07 13:42:00;;;;;;;20.95;10.45;;;;;;;;;;5095551;28;20020;-91
2022/05/07 13:44:25;;;;;;;32.40;10.90;;;;;;;;;;5095017;28;20031;-92
2022/05/07 13:46:51;;;;;;;20.77;10.40;;;;;;;;;;5095091;28;20028;-91
2022/05/07 13:49:16;;;;;;;17.75;9.68;;;;;;;;;;5096080;28;20048;-92
2022/05/07 13:51:41;;;;;;;33.08;10.50;;;;;;;;;;5095254;28;20485;-92
2022/05/07 13:54:08;;;;;;;37.33;9.75;;;;;;;;;;5094522;28;20020;-92
2022/05/07 13:56:33;;;;;;;22.08;9.77;;;;;;;;;;5095073;28;20058;-92
2022/05/07 13:58:58;;;;;;;21.02;9.60;;;;;;;;;;5095283;28;20166;-92
2022/05/07 14:01:24;;;;;;;15.52;7.13;;;;;;;;;;5094816;28;20568;-91
2022/05/07 14:03:49;;;;;;;15.40;7.53;;;;;;;;;;5094271;28;20020;-91
2022/05/07 14:06:18;;;;;;;9.52;5.18;;;;;;;;;;5094475;28;20048;-91
2022/05/07 14:08:44;;;;;;;8.75;6.10;;;;;;;;;;5095495;28;20024;-92
2022/05/07 14:11:09;;;;;;;17.42;7.82;;;;;;;;;;5094263;28;20077;-91
2022/05/07 14:13:34;;;;;;;10.75;6.30;;;;;;;;;;5094257;28;20024;-91
2022/05/07 14:16:00;;;;;;;10.27;6.22;;;;;;;;;;5094132;28;20043;-91
2022/05/07 14:18:25;;;;;;;9.50;5.90;;;;;;;;;;5095448;28;20009;-91
2022/05/07 14:20:50;;;;;;;10.15;5.40;;;;;;;;;;5094078;28;20077;-91
2022/05/07 14:23:16;;;;;;;12.70;7.97;;;;;;;;;;5094219;28;20370;-91
2022/05/07 14:25:41;;;;;;;19.45;8.07;;;;;;;;;;5093761;28;20016;-91
2022/05/07 14:28:07;;;;;;;16.83;9.43;;;;;;;;;;5095267;28;20039;-91
2022/05/07 14:30:32;;;;;;;19.13;11.85;;;;;;;;;;5094370;28;20051;-90
2022/05/07 14:32:57;;;;;;;31.02;14.20;;;;;;;;;;5093776;28;20077;-91
2022/05/07 14:35:22;;;;;;;18.35;11.18;;;;;;;;;;5093671;28;20020;-91
2022/05/07 14:37:48;;;;;;;21.35;13.18;;;;;;;;;;5094000;28;20494;-91
2022/05/07 14:40:28;;;;;;;24.40;13.18;;;;;;;;;;5095059;28;20040;-91
2022/05/07 14:42:53;;;;;;;21.27;12.48;;;;;;;;;;5093830;28;20475;-91
2022/05/07 14:45:19;;;;;;;25.00;16.33;;;;;;;;;;5093656;28;20046;-91
2022/05/07 14:47:44;;;;;;;22.60;13.70;;;;;;;;;;5094984;28;20020;-91
2022/05/07 14:50:10;;;;;;;24.38;12.93;;;;;;;;;;5095077;28;20391;-91
2022/05/07 14:52:35;;;;;;;24.63;14.05;;;;;;;;;;5093698;28;20020;-92
2022/05/07 14:55:00;;;;;;;21.83;11.85;;;;;;;;;;5093160;28;20024;-91